sensor_id;sensor_type;location;lat;lon;timestamp;P1;durP1;ratioP1;P2;durP2;ratioP2
23260;SDS011;11799;47.740;-3.390;2023-04-01T00:00:05;42.53;;;5.47;;
23260;SDS011;11799;47.740;-3.390;2023-04-01T00:02:37;43.90;;;4.82;;
23260;SDS011;11799;47.740;-3.390;2023-04-01T00:05:03;41.17;;;4.63;;
23260;SDS011;11799;47.740;-3.390;2023-04-01T00:07:28;54.42;;;5.03;;
23260;SDS011;11799;47.740;-3.390;2023-04-01T00:09:54;54.78;;;5.00;;
23260;SDS011;11799;47.740;-3.390;2023-04-01T00:12:20;42.28;;;5.32;;
23260;SDS011;11799;47.740;-3.390;2023-04-01T00:14:45;43.53;;;5.13;;
23260;SDS011;11799;47.740;-3.390;2023-04-01T00:17:11;43.25;;;4.82;;
23260;SDS011;11799;47.740;-3.390;2023-04-01T00:19:37;56.85;;;7.20;;
23260;SDS011;11799;47.740;-3.390;2023-04-01T00:22:02;48.47;;;4.28;;
23260;SDS011;11799;47.740;-3.390;2023-04-01T00:24:28;46.90;;;5.38;;
23260;SDS011;11799;47.740;-3.390;2023-04-01T00:26:54;49.30;;;4.80;;
23260;SDS011;11799;47.740;-3.390;2023-04-01T00:29:20;44.58;;;4.65;;
23260;SDS011;11799;47.740;-3.390;2023-04-01T00:31:46;39.38;;;3.40;;
23260;SDS011;11799;47.740;-3.390;2023-04-01T00:34:12;41.33;;;4.55;;
23260;SDS011;11799;47.740;-3.390;2023-04-01T00:36:37;41.35;;;4.03;;
23260;SDS011;11799;47.740;-3.390;2023-04-01T00:39:03;29.48;;;4.43;;
23260;SDS011;11799;47.740;-3.390;2023-04-01T00:41:29;44.97;;;3.45;;
23260;SDS011;11799;47.740;-3.390;2023-04-01T00:44:12;44.63;;;4.32;;
23260;SDS011;11799;47.740;-3.390;2023-04-01T00:46:45;25.98;;;3.38;;
23260;SDS011;11799;47.740;-3.390;2023-04-01T00:49:10;28.92;;;3.45;;
23260;SDS011;11799;47.740;-3.390;2023-04-01T00:51:37;46.13;;;6.07;;
23260;SDS011;11799;47.740;-3.390;2023-04-01T00:54:04;39.20;;;4.65;;
23260;SDS011;11799;47.740;-3.390;2023-04-01T00:56:35;31.55;;;3.80;;
23260;SDS011;11799;47.740;-3.390;2023-04-01T00:59:06;34.92;;;4.30;;
23260;SDS011;11799;47.740;-3.390;2023-04-01T01:01:36;39.22;;;5.20;;
23260;SDS011;11799;47.740;-3.390;2023-04-01T01:04:02;31.83;;;3.67;;
23260;SDS011;11799;47.740;-3.390;2023-04-01T01:12:10;27.90;;;4.00;;
23260;SDS011;11799;47.740;-3.390;2023-04-01T01:31:20;28.88;;;3.20;;
23260;SDS011;11799;47.740;-3.390;2023-04-01T01:33:59;36.13;;;3.83;;
23260;SDS011;11799;47.740;-3.390;2023-04-01T01:36:37;42.58;;;5.00;;
23260;SDS011;11799;47.740;-3.390;2023-04-01T01:39:08;41.55;;;4.47;;
23260;SDS011;11799;47.740;-3.390;2023-04-01T01:41:36;40.92;;;4.65;;
23260;SDS011;11799;47.740;-3.390;2023-04-01T01:44:06;38.58;;;5.07;;
23260;SDS011;11799;47.740;-3.390;2023-04-01T01:46:33;37.20;;;4.78;;
23260;SDS011;11799;47.740;-3.390;2023-04-01T01:48:59;44.95;;;5.53;;
23260;SDS011;11799;47.740;-3.390;2023-04-01T01:51:27;55.42;;;6.43;;
23260;SDS011;11799;47.740;-3.390;2023-04-01T01:53:53;50.90;;;5.35;;
23260;SDS011;11799;47.740;-3.390;2023-04-01T01:56:21;45.83;;;5.30;;
23260;SDS011;11799;47.740;-3.390;2023-04-01T01:58:49;56.58;;;7.13;;
23260;SDS011;11799;47.740;-3.390;2023-04-01T02:01:22;54.88;;;5.72;;
23260;SDS011;11799;47.740;-3.390;2023-04-01T02:03:52;50.33;;;6.45;;
23260;SDS011;11799;47.740;-3.390;2023-04-01T02:06:20;45.00;;;4.22;;
23260;SDS011;11799;47.740;-3.390;2023-04-01T02:11:39;40.22;;;4.72;;
23260;SDS011;11799;47.740;-3.390;2023-04-01T02:14:15;39.47;;;4.90;;
23260;SDS011;11799;47.740;-3.390;2023-04-01T02:19:26;55.63;;;5.60;;
23260;SDS011;11799;47.740;-3.390;2023-04-01T02:21:59;46.70;;;4.28;;
23260;SDS011;11799;47.740;-3.390;2023-04-01T02:24:28;38.33;;;4.53;;
23260;SDS011;11799;47.740;-3.390;2023-04-01T02:26:57;54.53;;;5.18;;
23260;SDS011;11799;47.740;-3.390;2023-04-01T02:29:23;44.72;;;5.30;;
23260;SDS011;11799;47.740;-3.390;2023-04-01T02:31:53;40.80;;;5.10;;
23260;SDS011;11799;47.740;-3.390;2023-04-01T02:34:20;39.42;;;4.28;;
23260;SDS011;11799;47.740;-3.390;2023-04-01T02:36:48;46.15;;;5.35;;
23260;SDS011;11799;47.740;-3.390;2023-04-01T02:39:15;35.80;;;4.47;;
23260;SDS011;11799;47.740;-3.390;2023-04-01T02:41:42;35.92;;;4.47;;
23260;SDS011;11799;47.740;-3.390;2023-04-01T02:44:09;47.53;;;5.53;;
23260;SDS011;11799;47.740;-3.390;2023-04-01T02:46:36;34.78;;;4.05;;
23260;SDS011;11799;47.740;-3.390;2023-04-01T02:49:02;42.08;;;4.47;;
23260;SDS011;11799;47.740;-3.390;2023-04-01T02:51:29;39.85;;;5.13;;
23260;SDS011;11799;47.740;-3.390;2023-04-01T02:53:54;49.10;;;6.28;;
23260;SDS011;11799;47.740;-3.390;2023-04-01T02:56:20;46.50;;;6.40;;
23260;SDS011;11799;47.740;-3.390;2023-04-01T02:58:46;40.10;;;5.45;;
23260;SDS011;11799;47.740;-3.390;2023-04-01T03:01:12;42.08;;;5.00;;
23260;SDS011;11799;47.740;-3.390;2023-04-01T03:03:38;32.00;;;4.22;;
23260;SDS011;11799;47.740;-3.390;2023-04-01T03:06:05;45.97;;;5.82;;
23260;SDS011;11799;47.740;-3.390;2023-04-01T03:08:34;40.10;;;4.60;;
23260;SDS011;11799;47.740;-3.390;2023-04-01T03:11:00;44.45;;;5.45;;
23260;SDS011;11799;47.740;-3.390;2023-04-01T03:13:26;42.10;;;6.07;;
23260;SDS011;11799;47.740;-3.390;2023-04-01T03:15:52;38.47;;;4.78;;
23260;SDS011;11799;47.740;-3.390;2023-04-01T03:18:18;42.13;;;5.28;;
23260;SDS011;11799;47.740;-3.390;2023-04-01T03:20:43;51.75;;;5.10;;
23260;SDS011;11799;47.740;-3.390;2023-04-01T03:23:09;35.63;;;4.75;;
23260;SDS011;11799;47.740;-3.390;2023-04-01T03:25:35;57.17;;;6.30;;
23260;SDS011;11799;47.740;-3.390;2023-04-01T03:28:01;37.20;;;5.32;;
23260;SDS011;11799;47.740;-3.390;2023-04-01T03:30:27;44.75;;;4.97;;
23260;SDS011;11799;47.740;-3.390;2023-04-01T03:32:55;47.45;;;5.07;;
23260;SDS011;11799;47.740;-3.390;2023-04-01T03:35:21;43.72;;;3.97;;
23260;SDS011;11799;47.740;-3.390;2023-04-01T03:37:46;34.60;;;3.88;;
23260;SDS011;11799;47.740;-3.390;2023-04-01T03:40:12;35.08;;;3.88;;
23260;SDS011;11799;47.740;-3.390;2023-04-01T03:42:37;32.60;;;3.95;;
23260;SDS011;11799;47.740;-3.390;2023-04-01T03:45:04;55.75;;;5.30;;
23260;SDS011;11799;47.740;-3.390;2023-04-01T03:47:30;42.97;;;4.07;;
23260;SDS011;11799;47.740;-3.390;2023-04-01T03:49:56;48.30;;;7.03;;
23260;SDS011;11799;47.740;-3.390;2023-04-01T03:52:22;42.20;;;4.45;;
23260;SDS011;11799;47.740;-3.390;2023-04-01T03:54:48;34.40;;;4.35;;
23260;SDS011;11799;47.740;-3.390;2023-04-01T03:57:14;48.58;;;4.78;;
23260;SDS011;11799;47.740;-3.390;2023-04-01T03:59:40;39.83;;;5.40;;
23260;SDS011;11799;47.740;-3.390;2023-04-01T04:02:05;45.40;;;5.47;;
23260;SDS011;11799;47.740;-3.390;2023-04-01T04:04:31;46.80;;;5.28;;
23260;SDS011;11799;47.740;-3.390;2023-04-01T04:06:57;42.75;;;5.05;;
23260;SDS011;11799;47.740;-3.390;2023-04-01T04:09:24;39.58;;;4.70;;
23260;SDS011;11799;47.740;-3.390;2023-04-01T04:11:50;43.30;;;4.80;;
23260;SDS011;11799;47.740;-3.390;2023-04-01T04:14:16;37.75;;;5.55;;
23260;SDS011;11799;47.740;-3.390;2023-04-01T04:16:42;38.45;;;4.75;;
23260;SDS011;11799;47.740;-3.390;2023-04-01T04:19:09;30.40;;;4.50;;
23260;SDS011;11799;47.740;-3.390;2023-04-01T04:21:35;37.33;;;4.93;;
23260;SDS011;11799;47.740;-3.390;2023-04-01T04:24:01;37.08;;;4.30;;
23260;SDS011;11799;47.740;-3.390;2023-04-01T04:26:37;31.20;;;4.07;;
23260;SDS011;11799;47.740;-3.390;2023-04-01T04:29:03;58.78;;;5.00;;
23260;SDS011;11799;47.740;-3.390;2023-04-01T04:31:29;43.58;;;4.30;;
23260;SDS011;11799;47.740;-3.390;2023-04-01T04:33:58;28.63;;;4.53;;
23260;SDS011;11799;47.740;-3.390;2023-04-01T04:36:25;36.63;;;4.53;;
23260;SDS011;11799;47.740;-3.390;2023-04-01T04:38:51;36.38;;;4.05;;
23260;SDS011;11799;47.740;-3.390;2023-04-01T04:41:17;31.77;;;4.55;;
23260;SDS011;11799;47.740;-3.390;2023-04-01T04:43:54;29.95;;;5.28;;
23260;SDS011;11799;47.740;-3.390;2023-04-01T04:46:22;37.63;;;5.38;;
23260;SDS011;11799;47.740;-3.390;2023-04-01T04:48:53;47.85;;;5.55;;
23260;SDS011;11799;47.740;-3.390;2023-04-01T04:51:18;48.38;;;6.72;;
23260;SDS011;11799;47.740;-3.390;2023-04-01T04:53:45;51.63;;;7.40;;
23260;SDS011;11799;47.740;-3.390;2023-04-01T04:56:11;55.95;;;6.35;;
23260;SDS011;11799;47.740;-3.390;2023-04-01T04:58:48;47.58;;;6.30;;
23260;SDS011;11799;47.740;-3.390;2023-04-01T05:01:19;48.70;;;6.32;;
23260;SDS011;11799;47.740;-3.390;2023-04-01T05:03:45;38.42;;;5.25;;
23260;SDS011;11799;47.740;-3.390;2023-04-01T05:06:12;35.72;;;5.28;;
23260;SDS011;11799;47.740;-3.390;2023-04-01T05:08:39;37.33;;;5.55;;
23260;SDS011;11799;47.740;-3.390;2023-04-01T05:11:07;37.83;;;5.03;;
23260;SDS011;11799;47.740;-3.390;2023-04-01T05:13:36;37.50;;;5.15;;
23260;SDS011;11799;47.740;-3.390;2023-04-01T05:16:02;35.75;;;4.47;;
23260;SDS011;11799;47.740;-3.390;2023-04-01T05:18:27;34.53;;;3.88;;
23260;SDS011;11799;47.740;-3.390;2023-04-01T05:20:53;41.75;;;4.78;;
23260;SDS011;11799;47.740;-3.390;2023-04-01T05:23:20;35.22;;;4.28;;
23260;SDS011;11799;47.740;-3.390;2023-04-01T05:25:47;28.30;;;3.50;;
23260;SDS011;11799;47.740;-3.390;2023-04-01T05:28:14;28.08;;;3.47;;
23260;SDS011;11799;47.740;-3.390;2023-04-01T05:30:42;34.25;;;3.58;;
23260;SDS011;11799;47.740;-3.390;2023-04-01T05:33:29;44.28;;;5.45;;
23260;SDS011;11799;47.740;-3.390;2023-04-01T05:35:55;43.95;;;4.97;;
23260;SDS011;11799;47.740;-3.390;2023-04-01T05:38:21;30.08;;;4.07;;
23260;SDS011;11799;47.740;-3.390;2023-04-01T05:40:47;31.52;;;3.75;;
23260;SDS011;11799;47.740;-3.390;2023-04-01T05:43:13;43.65;;;5.10;;
23260;SDS011;11799;47.740;-3.390;2023-04-01T05:45:39;33.42;;;4.78;;
23260;SDS011;11799;47.740;-3.390;2023-04-01T05:48:10;36.78;;;4.18;;
23260;SDS011;11799;47.740;-3.390;2023-04-01T05:50:39;34.88;;;5.30;;
23260;SDS011;11799;47.740;-3.390;2023-04-01T05:53:06;43.28;;;6.22;;
23260;SDS011;11799;47.740;-3.390;2023-04-01T05:55:31;30.35;;;4.35;;
23260;SDS011;11799;47.740;-3.390;2023-04-01T05:57:57;29.73;;;4.40;;
23260;SDS011;11799;47.740;-3.390;2023-04-01T06:00:22;28.25;;;4.07;;
23260;SDS011;11799;47.740;-3.390;2023-04-01T06:02:49;28.25;;;4.05;;
23260;SDS011;11799;47.740;-3.390;2023-04-01T06:05:19;36.22;;;4.28;;
23260;SDS011;11799;47.740;-3.390;2023-04-01T06:08:02;28.88;;;4.90;;
23260;SDS011;11799;47.740;-3.390;2023-04-01T06:15:50;22.65;;;4.38;;
23260;SDS011;11799;47.740;-3.390;2023-04-01T06:26:51;40.22;;;5.32;;
23260;SDS011;11799;47.740;-3.390;2023-04-01T06:29:36;26.20;;;4.75;;
23260;SDS011;11799;47.740;-3.390;2023-04-01T06:32:29;44.67;;;5.10;;
23260;SDS011;11799;47.740;-3.390;2023-04-01T06:46:24;39.95;;;5.22;;
23260;SDS011;11799;47.740;-3.390;2023-04-01T06:50:30;28.98;;;3.85;;
23260;SDS011;11799;47.740;-3.390;2023-04-01T06:53:12;40.38;;;5.53;;
23260;SDS011;11799;47.740;-3.390;2023-04-01T06:56:08;29.27;;;3.78;;
23260;SDS011;11799;47.740;-3.390;2023-04-01T07:01:37;36.03;;;3.90;;
23260;SDS011;11799;47.740;-3.390;2023-04-01T07:06:40;43.70;;;5.05;;
23260;SDS011;11799;47.740;-3.390;2023-04-01T07:09:22;37.67;;;3.92;;
23260;SDS011;11799;47.740;-3.390;2023-04-01T07:12:22;46.33;;;4.50;;
23260;SDS011;11799;47.740;-3.390;2023-04-01T07:15:30;45.50;;;4.60;;
23260;SDS011;11799;47.740;-3.390;2023-04-01T07:18:17;45.92;;;3.95;;
23260;SDS011;11799;47.740;-3.390;2023-04-01T07:20:52;33.35;;;4.20;;
23260;SDS011;11799;47.740;-3.390;2023-04-01T07:23:24;31.05;;;4.28;;
23260;SDS011;11799;47.740;-3.390;2023-04-01T07:26:24;36.28;;;3.75;;
23260;SDS011;11799;47.740;-3.390;2023-04-01T07:29:05;36.80;;;3.78;;
23260;SDS011;11799;47.740;-3.390;2023-04-01T07:34:22;39.38;;;5.38;;
23260;SDS011;11799;47.740;-3.390;2023-04-01T07:42:50;27.35;;;2.47;;
23260;SDS011;11799;47.740;-3.390;2023-04-01T07:45:23;15.77;;;2.47;;
23260;SDS011;11799;47.740;-3.390;2023-04-01T07:50:49;22.65;;;1.92;;
23260;SDS011;11799;47.740;-3.390;2023-04-01T07:53:50;23.13;;;2.28;;
23260;SDS011;11799;47.740;-3.390;2023-04-01T07:56:30;21.75;;;2.20;;
23260;SDS011;11799;47.740;-3.390;2023-04-01T07:59:05;21.17;;;3.05;;
23260;SDS011;11799;47.740;-3.390;2023-04-01T08:10:23;13.40;;;2.13;;
23260;SDS011;11799;47.740;-3.390;2023-04-01T08:19:45;17.42;;;1.90;;
23260;SDS011;11799;47.740;-3.390;2023-04-01T08:22:27;16.05;;;1.60;;
23260;SDS011;11799;47.740;-3.390;2023-04-01T08:25:01;12.88;;;1.85;;
23260;SDS011;11799;47.740;-3.390;2023-04-01T08:27:34;14.60;;;3.28;;
23260;SDS011;11799;47.740;-3.390;2023-04-01T08:32:34;33.55;;;2.97;;
23260;SDS011;11799;47.740;-3.390;2023-04-01T08:35:14;21.08;;;2.25;;
23260;SDS011;11799;47.740;-3.390;2023-04-01T08:37:51;17.48;;;2.25;;
23260;SDS011;11799;47.740;-3.390;2023-04-01T08:56:21;23.27;;;2.38;;
23260;SDS011;11799;47.740;-3.390;2023-04-01T09:04:52;11.70;;;2.17;;
23260;SDS011;11799;47.740;-3.390;2023-04-01T09:21:17;8.68;;;1.38;;
23260;SDS011;11799;47.740;-3.390;2023-04-01T09:32:42;12.73;;;1.75;;
23260;SDS011;11799;47.740;-3.390;2023-04-01T09:35:46;22.85;;;1.75;;
23260;SDS011;11799;47.740;-3.390;2023-04-01T09:43:33;14.02;;;2.17;;
23260;SDS011;11799;47.740;-3.390;2023-04-01T10:09:49;11.95;;;2.40;;
23260;SDS011;11799;47.740;-3.390;2023-04-01T10:23:59;23.38;;;3.25;;
23260;SDS011;11799;47.740;-3.390;2023-04-01T10:26:55;23.15;;;2.58;;
23260;SDS011;11799;47.740;-3.390;2023-04-01T10:47:49;23.17;;;2.35;;
23260;SDS011;11799;47.740;-3.390;2023-04-01T10:56:49;18.85;;;3.10;;
23260;SDS011;11799;47.740;-3.390;2023-04-01T11:09:07;18.70;;;2.95;;
23260;SDS011;11799;47.740;-3.390;2023-04-01T11:17:47;12.18;;;1.92;;
23260;SDS011;11799;47.740;-3.390;2023-04-01T11:31:35;30.92;;;2.67;;
23260;SDS011;11799;47.740;-3.390;2023-04-01T11:43:14;29.95;;;3.22;;
23260;SDS011;11799;47.740;-3.390;2023-04-01T12:08:55;19.77;;;2.30;;
23260;SDS011;11799;47.740;-3.390;2023-04-01T12:14:16;17.15;;;2.00;;
23260;SDS011;11799;47.740;-3.390;2023-04-01T12:16:48;11.90;;;2.10;;
23260;SDS011;11799;47.740;-3.390;2023-04-01T12:28:02;22.70;;;2.42;;
23260;SDS011;11799;47.740;-3.390;2023-04-01T12:30:53;15.85;;;2.60;;
23260;SDS011;11799;47.740;-3.390;2023-04-01T12:34:05;23.40;;;3.03;;
23260;SDS011;11799;47.740;-3.390;2023-04-01T12:44:13;21.17;;;3.70;;
23260;SDS011;11799;47.740;-3.390;2023-04-01T12:50:29;17.92;;;2.80;;
23260;SDS011;11799;47.740;-3.390;2023-04-01T12:52:54;18.08;;;3.03;;
23260;SDS011;11799;47.740;-3.390;2023-04-01T12:55:41;20.70;;;2.72;;
23260;SDS011;11799;47.740;-3.390;2023-04-01T13:10:26;23.67;;;2.60;;
23260;SDS011;11799;47.740;-3.390;2023-04-01T13:20:59;25.40;;;3.13;;
23260;SDS011;11799;47.740;-3.390;2023-04-01T13:31:36;35.10;;;4.18;;
23260;SDS011;11799;47.740;-3.390;2023-04-01T13:42:44;25.77;;;3.15;;
23260;SDS011;11799;47.740;-3.390;2023-04-01T13:45:19;24.63;;;2.95;;
23260;SDS011;11799;47.740;-3.390;2023-04-01T13:47:56;27.52;;;2.85;;
23260;SDS011;11799;47.740;-3.390;2023-04-01T13:56:41;26.35;;;3.15;;
23260;SDS011;11799;47.740;-3.390;2023-04-01T14:01:52;27.08;;;2.92;;
23260;SDS011;11799;47.740;-3.390;2023-04-01T14:07:56;20.60;;;2.65;;
23260;SDS011;11799;47.740;-3.390;2023-04-01T14:13:25;24.85;;;2.60;;
23260;SDS011;11799;47.740;-3.390;2023-04-01T14:32:33;28.08;;;2.60;;
23260;SDS011;11799;47.740;-3.390;2023-04-01T14:35:19;27.05;;;2.83;;
23260;SDS011;11799;47.740;-3.390;2023-04-01T14:43:35;24.88;;;2.72;;
23260;SDS011;11799;47.740;-3.390;2023-04-01T14:51:49;18.58;;;2.15;;
23260;SDS011;11799;47.740;-3.390;2023-04-01T14:54:18;27.90;;;2.97;;
23260;SDS011;11799;47.740;-3.390;2023-04-01T14:59:51;15.80;;;2.25;;
23260;SDS011;11799;47.740;-3.390;2023-04-01T15:13:24;20.35;;;2.22;;
23260;SDS011;11799;47.740;-3.390;2023-04-01T15:19:10;12.18;;;2.05;;
23260;SDS011;11799;47.740;-3.390;2023-04-01T15:22:07;11.60;;;1.98;;
23260;SDS011;11799;47.740;-3.390;2023-04-01T15:27:51;15.20;;;2.20;;
23260;SDS011;11799;47.740;-3.390;2023-04-01T15:33:15;9.20;;;1.65;;
23260;SDS011;11799;47.740;-3.390;2023-04-01T15:38:43;13.25;;;1.88;;
23260;SDS011;11799;47.740;-3.390;2023-04-01T15:44:42;13.70;;;2.00;;
23260;SDS011;11799;47.740;-3.390;2023-04-01T15:47:32;12.90;;;1.73;;
23260;SDS011;11799;47.740;-3.390;2023-04-01T15:50:17;12.88;;;1.95;;
23260;SDS011;11799;47.740;-3.390;2023-04-01T16:06:33;10.95;;;1.80;;
23260;SDS011;11799;47.740;-3.390;2023-04-01T16:09:27;13.43;;;1.50;;
23260;SDS011;11799;47.740;-3.390;2023-04-01T16:15:24;9.93;;;1.55;;
23260;SDS011;11799;47.740;-3.390;2023-04-01T16:23:40;11.00;;;2.22;;
23260;SDS011;11799;47.740;-3.390;2023-04-01T16:31:32;16.75;;;2.30;;
23260;SDS011;11799;47.740;-3.390;2023-04-01T16:34:09;16.30;;;1.88;;
23260;SDS011;11799;47.740;-3.390;2023-04-01T16:36:43;14.30;;;1.92;;
23260;SDS011;11799;47.740;-3.390;2023-04-01T16:45:15;10.15;;;1.95;;
23260;SDS011;11799;47.740;-3.390;2023-04-01T16:47:51;19.08;;;1.73;;
23260;SDS011;11799;47.740;-3.390;2023-04-01T16:50:21;9.05;;;1.42;;
23260;SDS011;11799;47.740;-3.390;2023-04-01T16:55:42;9.95;;;1.65;;
23260;SDS011;11799;47.740;-3.390;2023-04-01T16:58:29;9.55;;;1.70;;
23260;SDS011;11799;47.740;-3.390;2023-04-01T17:01:03;8.18;;;1.70;;
23260;SDS011;11799;47.740;-3.390;2023-04-01T17:04:20;4.97;;;1.27;;
23260;SDS011;11799;47.740;-3.390;2023-04-01T17:12:10;7.00;;;1.60;;
23260;SDS011;11799;47.740;-3.390;2023-04-01T17:18:01;8.15;;;1.17;;
23260;SDS011;11799;47.740;-3.390;2023-04-01T17:23:11;10.52;;;1.80;;
23260;SDS011;11799;47.740;-3.390;2023-04-01T17:25:57;10.38;;;1.50;;
23260;SDS011;11799;47.740;-3.390;2023-04-01T17:28:47;13.70;;;1.90;;
23260;SDS011;11799;47.740;-3.390;2023-04-01T17:42:21;7.22;;;1.50;;
23260;SDS011;11799;47.740;-3.390;2023-04-01T17:53:17;6.07;;;1.40;;
23260;SDS011;11799;47.740;-3.390;2023-04-01T18:06:40;4.38;;;1.30;;
23260;SDS011;11799;47.740;-3.390;2023-04-01T18:25:40;9.20;;;1.50;;
23260;SDS011;11799;47.740;-3.390;2023-04-01T18:28:22;5.22;;;1.38;;
23260;SDS011;11799;47.740;-3.390;2023-04-01T18:39:08;7.70;;;1.77;;
23260;SDS011;11799;47.740;-3.390;2023-04-01T18:44:41;8.07;;;1.98;;
23260;SDS011;11799;47.740;-3.390;2023-04-01T18:50:17;7.47;;;1.83;;
23260;SDS011;11799;47.740;-3.390;2023-04-01T18:52:46;9.05;;;2.10;;
23260;SDS011;11799;47.740;-3.390;2023-04-01T18:55:22;9.63;;;1.70;;
23260;SDS011;11799;47.740;-3.390;2023-04-01T18:57:50;12.50;;;1.88;;
23260;SDS011;11799;47.740;-3.390;2023-04-01T19:00:28;5.82;;;1.95;;
23260;SDS011;11799;47.740;-3.390;2023-04-01T19:03:02;6.93;;;1.85;;
23260;SDS011;11799;47.740;-3.390;2023-04-01T19:05:38;13.07;;;2.10;;
23260;SDS011;11799;47.740;-3.390;2023-04-01T19:19:28;10.00;;;1.83;;
23260;SDS011;11799;47.740;-3.390;2023-04-01T19:27:41;7.45;;;1.98;;
23260;SDS011;11799;47.740;-3.390;2023-04-01T19:35:31;2.97;;;1.55;;
23260;SDS011;11799;47.740;-3.390;2023-04-01T19:38:12;7.63;;;1.60;;
23260;SDS011;11799;47.740;-3.390;2023-04-01T19:40:48;6.53;;;1.67;;
23260;SDS011;11799;47.740;-3.390;2023-04-01T19:54:19;11.68;;;1.90;;
23260;SDS011;11799;47.740;-3.390;2023-04-01T20:05:20;5.15;;;2.00;;
23260;SDS011;11799;47.740;-3.390;2023-04-01T20:08:00;11.25;;;2.08;;
23260;SDS011;11799;47.740;-3.390;2023-04-01T20:16:20;5.88;;;1.90;;
23260;SDS011;11799;47.740;-3.390;2023-04-01T20:18:52;9.75;;;2.30;;
23260;SDS011;11799;47.740;-3.390;2023-04-01T20:24:07;7.18;;;2.05;;
23260;SDS011;11799;47.740;-3.390;2023-04-01T20:26:48;8.45;;;2.13;;
23260;SDS011;11799;47.740;-3.390;2023-04-01T20:29:36;8.98;;;2.50;;
23260;SDS011;11799;47.740;-3.390;2023-04-01T20:35:13;11.65;;;2.50;;
23260;SDS011;11799;47.740;-3.390;2023-04-01T20:37:57;7.90;;;2.38;;
23260;SDS011;11799;47.740;-3.390;2023-04-01T20:40:49;9.73;;;2.70;;
23260;SDS011;11799;47.740;-3.390;2023-04-01T20:43:20;10.05;;;2.28;;
23260;SDS011;11799;47.740;-3.390;2023-04-01T20:45:57;12.60;;;2.40;;
23260;SDS011;11799;47.740;-3.390;2023-04-01T20:48:31;11.02;;;2.85;;
23260;SDS011;11799;47.740;-3.390;2023-04-01T20:51:14;7.47;;;3.03;;
23260;SDS011;11799;47.740;-3.390;2023-04-01T20:53:43;9.90;;;2.80;;
23260;SDS011;11799;47.740;-3.390;2023-04-01T21:09:43;12.85;;;2.80;;
23260;SDS011;11799;47.740;-3.390;2023-04-01T21:14:54;13.65;;;2.80;;
23260;SDS011;11799;47.740;-3.390;2023-04-01T21:22:44;13.57;;;3.03;;
23260;SDS011;11799;47.740;-3.390;2023-04-01T21:37:02;12.90;;;3.00;;
23260;SDS011;11799;47.740;-3.390;2023-04-01T22:01:14;14.65;;;4.13;;
23260;SDS011;11799;47.740;-3.390;2023-04-01T22:03:58;18.67;;;3.50;;
23260;SDS011;11799;47.740;-3.390;2023-04-01T22:06:35;13.60;;;3.67;;
23260;SDS011;11799;47.740;-3.390;2023-04-01T22:09:12;15.73;;;3.95;;
23260;SDS011;11799;47.740;-3.390;2023-04-01T22:11:58;12.15;;;3.85;;
23260;SDS011;11799;47.740;-3.390;2023-04-01T22:25:36;11.45;;;3.80;;
23260;SDS011;11799;47.740;-3.390;2023-04-01T22:28:05;12.10;;;3.38;;
23260;SDS011;11799;47.740;-3.390;2023-04-01T22:30:42;7.38;;;3.50;;
23260;SDS011;11799;47.740;-3.390;2023-04-01T22:33:16;11.82;;;3.80;;
23260;SDS011;11799;47.740;-3.390;2023-04-01T22:38:35;15.15;;;3.17;;
23260;SDS011;11799;47.740;-3.390;2023-04-01T22:44:20;17.63;;;3.10;;
23260;SDS011;11799;47.740;-3.390;2023-04-01T22:47:02;10.43;;;3.00;;
23260;SDS011;11799;47.740;-3.390;2023-04-01T22:52:37;10.98;;;3.05;;
23260;SDS011;11799;47.740;-3.390;2023-04-01T22:55:15;9.63;;;2.53;;
23260;SDS011;11799;47.740;-3.390;2023-04-01T22:57:50;11.75;;;3.00;;
23260;SDS011;11799;47.740;-3.390;2023-04-01T23:00:26;11.27;;;2.55;;
23260;SDS011;11799;47.740;-3.390;2023-04-01T23:05:39;11.05;;;2.80;;
23260;SDS011;11799;47.740;-3.390;2023-04-01T23:11:14;18.02;;;3.10;;
23260;SDS011;11799;47.740;-3.390;2023-04-01T23:13:45;15.68;;;2.85;;
23260;SDS011;11799;47.740;-3.390;2023-04-01T23:16:20;17.92;;;2.90;;
23260;SDS011;11799;47.740;-3.390;2023-04-01T23:18:56;13.93;;;2.60;;
23260;SDS011;11799;47.740;-3.390;2023-04-01T23:21:45;11.60;;;2.67;;
23260;SDS011;11799;47.740;-3.390;2023-04-01T23:24:21;12.75;;;2.40;;
23260;SDS011;11799;47.740;-3.390;2023-04-01T23:27:00;12.05;;;2.60;;
23260;SDS011;11799;47.740;-3.390;2023-04-01T23:29:31;7.93;;;2.80;;
23260;SDS011;11799;47.740;-3.390;2023-04-01T23:34:31;10.85;;;2.63;;
23260;SDS011;11799;47.740;-3.390;2023-04-01T23:37:07;9.43;;;2.88;;
23260;SDS011;11799;47.740;-3.390;2023-04-01T23:39:38;9.73;;;2.67;;
23260;SDS011;11799;47.740;-3.390;2023-04-01T23:44:38;11.05;;;2.60;;
23260;SDS011;11799;47.740;-3.390;2023-04-01T23:47:04;12.10;;;3.20;;
23260;SDS011;11799;47.740;-3.390;2023-04-01T23:49:38;11.20;;;3.00;;
23260;SDS011;11799;47.740;-3.390;2023-04-01T23:52:51;8.63;;;2.55;;
23260;SDS011;11799;47.740;-3.390;2023-04-01T23:57:39;10.48;;;2.83;;
